Time;durP1;ratioP1;P1;durP2;ratioP2;P2;SDS_P1;SDS_P2;PMS_P1;PMS_P2;Temp;Humidity;BMP_temperature;BMP_pressure;BME280_temperature;BME280_humidity;BME280_pressure;Samples;Min_cycle;Max_cycle;Signal;HPM_P1;HPM_P2
2023/05/14 00:00:41;;;;;;;30.02;19.92;;;;;;;;;;4964370;28;25080;-79
2023/05/14 00:03:07;;;;;;;36.70;20.08;;;;;;;;;;4961558;28;25057;-78
2023/05/14 00:05:33;;;;;;;28.60;17.00;;;;;;;;;;4968436;28;25055;-75
2023/05/14 00:07:59;;;;;;;33.38;18.83;;;;;;;;;;4964677;28;25120;-79
2023/05/14 00:10:25;;;;;;;29.67;18.23;;;;;;;;;;4966180;28;25112;-76
2023/05/14 00:12:51;;;;;;;32.03;18.10;;;;;;;;;;4964134;28;25063;-75
2023/05/14 00:15:17;;;;;;;34.22;19.85;;;;;;;;;;4964401;28;25057;-78
2023/05/14 00:17:43;;;;;;;27.83;17.52;;;;;;;;;;4964755;28;25072;-78
2023/05/14 00:20:11;;;;;;;30.00;18.00;;;;;;;;;;4968206;28;25091;-80
2023/05/14 00:22:37;;;;;;;32.38;19.05;;;;;;;;;;4972722;28;25057;-75
2023/05/14 00:25:03;;;;;;;30.73;18.48;;;;;;;;;;4965824;28;25079;-79
2023/05/14 00:27:30;;;;;;;29.38;18.45;;;;;;;;;;4964179;28;25066;-78
2023/05/14 00:29:56;;;;;;;31.48;18.60;;;;;;;;;;4964780;28;25088;-77
2023/05/14 00:32:22;;;;;;;30.23;17.63;;;;;;;;;;4963555;28;25087;-77
2023/05/14 00:34:48;;;;;;;29.88;17.80;;;;;;;;;;4965040;28;25082;-76
2023/05/14 00:37:14;;;;;;;31.25;17.27;;;;;;;;;;4961684;28;25071;-78
2023/05/14 00:39:40;;;;;;;31.00;17.98;;;;;;;;;;4965960;28;25056;-78
2023/05/14 00:42:06;;;;;;;30.73;17.63;;;;;;;;;;4963436;28;25076;-77
2023/05/14 00:44:32;;;;;;;24.58;15.23;;;;;;;;;;4962480;28;25107;-80
2023/05/14 00:46:59;;;;;;;31.30;17.08;;;;;;;;;;4962108;28;25153;-76
2023/05/14 00:49:26;;;;;;;25.80;16.92;;;;;;;;;;4962291;28;25049;-78
2023/05/14 00:51:52;;;;;;;24.73;16.63;;;;;;;;;;4963881;28;25104;-78
2023/05/14 00:54:19;;;;;;;30.50;18.08;;;;;;;;;;4962139;28;25109;-79
2023/05/14 00:56:45;;;;;;;27.58;18.15;;;;;;;;;;4961055;28;25082;-76
2023/05/14 00:59:13;;;;;;;31.30;18.92;;;;;;;;;;4965642;28;25058;-79
2023/05/14 01:01:39;;;;;;;31.27;16.77;;;;;;;;;;4967677;28;25057;-76
2023/05/14 01:04:06;;;;;;;28.95;18.17;;;;;;;;;;4964271;28;25070;-77
2023/05/14 01:06:32;;;;;;;28.83;18.27;;;;;;;;;;4968184;28;25080;-77
2023/05/14 01:09:01;;;;;;;30.55;18.08;;;;;;;;;;4964307;28;25098;-78
2023/05/14 01:11:38;;;;;;;32.60;16.88;;;;;;;;;;4972288;28;25101;-77
2023/05/14 01:14:16;;;;;;;29.30;17.92;;;;;;;;;;4965766;28;25079;-77
2023/05/14 01:16:43;;;;;;;29.45;17.25;;;;;;;;;;4970854;28;25083;-78
2023/05/14 01:19:12;;;;;;;27.92;16.83;;;;;;;;;;4968549;28;25127;-80
2023/05/14 01:21:39;;;;;;;26.02;17.08;;;;;;;;;;4966531;28;25058;-77
2023/05/14 01:24:06;;;;;;;31.70;18.30;;;;;;;;;;4963425;28;25154;-78
2023/05/14 01:26:32;;;;;;;30.60;17.48;;;;;;;;;;4962958;28;25072;-79
2023/05/14 01:29:01;;;;;;;28.60;16.73;;;;;;;;;;4967509;28;25100;-77
2023/05/14 01:31:30;;;;;;;26.65;17.73;;;;;;;;;;4965019;28;25108;-78
2023/05/14 01:33:58;;;;;;;27.10;17.15;;;;;;;;;;4969965;28;25077;-78
2023/05/14 01:36:25;;;;;;;31.52;17.00;;;;;;;;;;4971194;28;25091;-77
2023/05/14 01:38:51;;;;;;;26.77;16.60;;;;;;;;;;4972311;28;25075;-78
2023/05/14 01:41:18;;;;;;;28.08;16.98;;;;;;;;;;4973048;28;25057;-77
2023/05/14 01:43:44;;;;;;;29.92;17.17;;;;;;;;;;4965209;28;25071;-77
2023/05/14 01:46:10;;;;;;;32.22;18.35;;;;;;;;;;4969661;28;25169;-77
2023/05/14 01:48:36;;;;;;;27.15;16.33;;;;;;;;;;4966032;28;25083;-77
2023/05/14 01:51:03;;;;;;;32.20;16.83;;;;;;;;;;4964042;28;25073;-78
2023/05/14 01:53:29;;;;;;;30.45;17.95;;;;;;;;;;4965178;28;25156;-79
2023/05/14 01:55:55;;;;;;;39.72;18.38;;;;;;;;;;4963814;28;25068;-79
2023/05/14 01:58:20;;;;;;;29.70;17.08;;;;;;;;;;4964495;28;25077;-77
2023/05/14 02:00:46;;;;;;;29.17;18.52;;;;;;;;;;4967137;28;25055;-78
2023/05/14 02:03:12;;;;;;;30.55;18.67;;;;;;;;;;4964112;28;25077;-78
2023/05/14 02:05:38;;;;;;;34.45;18.95;;;;;;;;;;4967062;28;25082;-78
2023/05/14 02:08:04;;;;;;;31.08;18.98;;;;;;;;;;4965640;28;25060;-79
2023/05/14 02:10:30;;;;;;;29.92;19.02;;;;;;;;;;4964685;28;25123;-79
2023/05/14 02:12:56;;;;;;;36.58;20.13;;;;;;;;;;4965876;28;25110;-77
2023/05/14 02:15:22;;;;;;;40.53;19.83;;;;;;;;;;4965343;28;25067;-78
2023/05/14 02:17:48;;;;;;;31.33;18.92;;;;;;;;;;4968947;28;25135;-77
2023/05/14 02:20:14;;;;;;;36.72;19.45;;;;;;;;;;4965989;28;25076;-77
2023/05/14 02:22:44;;;;;;;37.75;18.95;;;;;;;;;;4968866;28;25079;-79
2023/05/14 02:25:11;;;;;;;28.88;17.88;;;;;;;;;;4969514;28;25099;-78
2023/05/14 02:27:37;;;;;;;35.03;18.88;;;;;;;;;;4967656;28;25097;-77
2023/05/14 02:30:03;;;;;;;30.50;18.35;;;;;;;;;;4964189;28;25131;-77
2023/05/14 02:32:29;;;;;;;33.88;19.88;;;;;;;;;;4964344;28;25102;-77
2023/05/14 02:34:55;;;;;;;33.78;20.27;;;;;;;;;;4966719;28;25071;-78
2023/05/14 02:37:21;;;;;;;35.28;19.23;;;;;;;;;;4965018;28;25064;-78
2023/05/14 02:39:48;;;;;;;33.63;18.58;;;;;;;;;;4964807;28;25117;-76
2023/05/14 02:42:14;;;;;;;30.02;18.42;;;;;;;;;;4965766;28;25170;-77
2023/05/14 02:44:40;;;;;;;43.58;20.92;;;;;;;;;;4965008;28;25078;-77
2023/05/14 02:47:09;;;;;;;36.30;20.70;;;;;;;;;;4965320;28;25070;-78
2023/05/14 02:49:35;;;;;;;35.38;20.02;;;;;;;;;;4964507;28;25063;-77
2023/05/14 02:52:01;;;;;;;37.80;19.90;;;;;;;;;;4965631;28;25087;-78
2023/05/14 02:54:27;;;;;;;37.35;21.52;;;;;;;;;;4966139;28;25072;-78
2023/05/14 02:56:53;;;;;;;38.78;22.42;;;;;;;;;;4967839;28;25057;-79
2023/05/14 02:59:18;;;;;;;34.47;21.10;;;;;;;;;;4964460;28;25122;-76
2023/05/14 03:01:44;;;;;;;44.55;23.35;;;;;;;;;;4966349;28;25074;-76
2023/05/14 03:04:10;;;;;;;37.50;20.35;;;;;;;;;;4964929;28;25162;-77
2023/05/14 03:06:36;;;;;;;34.22;20.48;;;;;;;;;;4965133;28;25081;-77
2023/05/14 03:09:03;;;;;;;31.80;18.75;;;;;;;;;;4965213;28;25084;-77
2023/05/14 03:11:29;;;;;;;39.05;20.98;;;;;;;;;;4971140;28;25163;-77
2023/05/14 03:13:55;;;;;;;30.15;18.98;;;;;;;;;;4976258;28;25077;-77
2023/05/14 03:16:21;;;;;;;34.75;18.15;;;;;;;;;;4966083;28;25107;-78
2023/05/14 03:18:47;;;;;;;30.65;18.42;;;;;;;;;;4962988;28;25099;-77
2023/05/14 03:21:12;;;;;;;34.40;18.73;;;;;;;;;;4962036;28;24848;-77
2023/05/14 03:23:39;;;;;;;35.58;18.58;;;;;;;;;;4964121;28;25097;-79
2023/05/14 03:26:05;;;;;;;33.10;18.85;;;;;;;;;;4963125;28;25128;-77
2023/05/14 03:28:31;;;;;;;37.35;20.77;;;;;;;;;;4977778;28;25071;-79
2023/05/14 03:30:57;;;;;;;37.10;20.90;;;;;;;;;;4978424;28;25056;-78
2023/05/14 03:33:23;;;;;;;36.55;20.60;;;;;;;;;;4963436;28;25102;-76
2023/05/14 03:35:49;;;;;;;31.75;19.67;;;;;;;;;;4959859;28;25103;-77
2023/05/14 03:38:15;;;;;;;37.90;21.90;;;;;;;;;;4974638;28;25073;-79
2023/05/14 03:40:41;;;;;;;38.65;19.58;;;;;;;;;;4965595;28;25103;-76
2023/05/14 03:43:07;;;;;;;37.75;20.70;;;;;;;;;;4964631;28;25173;-78
2023/05/14 03:45:33;;;;;;;40.28;21.25;;;;;;;;;;4965156;28;25134;-76
2023/05/14 03:47:59;;;;;;;45.58;22.20;;;;;;;;;;4967023;28;25074;-77
2023/05/14 03:50:25;;;;;;;36.92;21.17;;;;;;;;;;4967175;28;25063;-78
2023/05/14 03:52:51;;;;;;;39.20;21.60;;;;;;;;;;4970379;28;25070;-78
2023/05/14 03:55:18;;;;;;;41.45;21.88;;;;;;;;;;4963892;28;25133;-79
2023/05/14 03:57:45;;;;;;;42.05;22.80;;;;;;;;;;4966427;28;25079;-75
2023/05/14 04:00:11;;;;;;;38.45;22.52;;;;;;;;;;4965637;28;25093;-78
2023/05/14 04:02:37;;;;;;;40.42;21.90;;;;;;;;;;4962867;28;25128;-78
2023/05/14 04:05:03;;;;;;;40.70;21.30;;;;;;;;;;4960543;28;25339;-77
2023/05/14 04:07:29;;;;;;;43.05;21.55;;;;;;;;;;4962119;28;25108;-79
2023/05/14 04:09:55;;;;;;;38.60;21.83;;;;;;;;;;4962595;28;25104;-77
2023/05/14 04:12:21;;;;;;;39.35;23.05;;;;;;;;;;4961727;28;25050;-79
2023/05/14 04:14:47;;;;;;;38.63;22.85;;;;;;;;;;4963360;28;25131;-76
2023/05/14 04:17:13;;;;;;;43.90;23.35;;;;;;;;;;4963839;28;25189;-78
2023/05/14 04:19:39;;;;;;;40.28;22.15;;;;;;;;;;4962389;28;25077;-76
2023/05/14 04:22:05;;;;;;;44.90;22.83;;;;;;;;;;4965350;28;25064;-78
2023/05/14 04:24:31;;;;;;;43.03;23.23;;;;;;;;;;4965902;28;25152;-76
2023/05/14 04:26:57;;;;;;;42.33;22.25;;;;;;;;;;4964710;28;25082;-76
2023/05/14 04:29:23;;;;;;;41.08;22.42;;;;;;;;;;4960854;28;25082;-77
2023/05/14 04:31:49;;;;;;;45.38;24.10;;;;;;;;;;4961893;28;25123;-78
2023/05/14 04:34:15;;;;;;;42.00;22.88;;;;;;;;;;4959794;28;25089;-77
2023/05/14 04:36:41;;;;;;;39.90;23.98;;;;;;;;;;4963449;28;25122;-77
2023/05/14 04:39:11;;;;;;;41.70;22.25;;;;;;;;;;4959914;28;25048;-75
2023/05/14 04:41:37;;;;;;;47.10;23.23;;;;;;;;;;4962064;28;25076;-77
2023/05/14 04:44:03;;;;;;;38.00;21.85;;;;;;;;;;4961664;28;25067;-77
2023/05/14 04:46:29;;;;;;;40.90;24.58;;;;;;;;;;4967503;28;25064;-78
2023/05/14 04:48:56;;;;;;;47.28;24.95;;;;;;;;;;4960707;28;25116;-77
2023/05/14 04:51:22;;;;;;;45.35;24.05;;;;;;;;;;4963489;28;25067;-78
2023/05/14 04:53:48;;;;;;;40.80;22.38;;;;;;;;;;4963610;28;25125;-78
2023/05/14 04:56:14;;;;;;;42.42;22.42;;;;;;;;;;4961402;28;25133;-78
2023/05/14 04:58:42;;;;;;;46.00;22.65;;;;;;;;;;4960266;28;25106;-76
2023/05/14 05:01:08;;;;;;;44.13;23.42;;;;;;;;;;4961824;28;25098;-78
2023/05/14 05:03:34;;;;;;;41.67;22.00;;;;;;;;;;4957751;28;25062;-77
2023/05/14 05:06:00;;;;;;;38.05;21.63;;;;;;;;;;4963653;28;25088;-78
2023/05/14 05:08:26;;;;;;;38.90;22.30;;;;;;;;;;4959964;28;25089;-76
2023/05/14 05:10:52;;;;;;;38.60;22.08;;;;;;;;;;4968986;28;25135;-78
2023/05/14 05:13:18;;;;;;;38.08;22.08;;;;;;;;;;4965935;28;25055;-78
2023/05/14 05:15:44;;;;;;;39.05;21.70;;;;;;;;;;4960952;28;25061;-75
2023/05/14 05:18:10;;;;;;;43.33;22.77;;;;;;;;;;4961788;28;25156;-78
2023/05/14 05:20:36;;;;;;;40.95;22.70;;;;;;;;;;4961894;28;25145;-78
2023/05/14 05:23:02;;;;;;;34.35;20.25;;;;;;;;;;4959787;28;25069;-78
2023/05/14 05:25:28;;;;;;;40.13;20.25;;;;;;;;;;4963851;28;25105;-77
2023/05/14 05:27:56;;;;;;;38.65;20.17;;;;;;;;;;4960584;28;25091;-78
2023/05/14 05:30:22;;;;;;;41.97;21.63;;;;;;;;;;4962831;28;25052;-81
2023/05/14 05:32:48;;;;;;;34.95;20.17;;;;;;;;;;4962238;28;25088;-73
2023/05/14 05:35:13;;;;;;;40.97;20.98;;;;;;;;;;4962800;28;25063;-76
2023/05/14 05:37:40;;;;;;;40.67;22.10;;;;;;;;;;4960372;28;25075;-77
2023/05/14 05:40:06;;;;;;;32.25;18.98;;;;;;;;;;4965902;28;25086;-77
2023/05/14 05:42:33;;;;;;;29.98;18.70;;;;;;;;;;4964613;28;25052;-79
2023/05/14 05:44:59;;;;;;;36.83;18.45;;;;;;;;;;4967702;28;25105;-78
2023/05/14 05:47:25;;;;;;;30.10;19.05;;;;;;;;;;4971717;28;25063;-78
2023/05/14 05:49:52;;;;;;;34.83;20.23;;;;;;;;;;4977028;28;25084;-77
2023/05/14 05:52:18;;;;;;;38.00;20.65;;;;;;;;;;4975164;28;25049;-79
2023/05/14 05:54:44;;;;;;;32.22;18.63;;;;;;;;;;4968888;28;25059;-78
2023/05/14 05:57:10;;;;;;;35.03;18.88;;;;;;;;;;4980381;28;25068;-77
2023/05/14 05:59:36;;;;;;;33.85;19.05;;;;;;;;;;4977933;28;25061;-79
2023/05/14 06:02:02;;;;;;;32.83;18.90;;;;;;;;;;4978806;28;25070;-77
2023/05/14 06:04:28;;;;;;;39.60;19.98;;;;;;;;;;4970941;28;25056;-76
2023/05/14 06:06:54;;;;;;;37.83;18.45;;;;;;;;;;4970126;28;25060;-77
2023/05/14 06:09:20;;;;;;;30.23;17.42;;;;;;;;;;4970899;28;25102;-78
2023/05/14 06:11:46;;;;;;;31.52;19.52;;;;;;;;;;4966157;28;25122;-77
2023/05/14 06:14:12;;;;;;;33.97;17.38;;;;;;;;;;4966232;28;25065;-77
2023/05/14 06:16:38;;;;;;;31.95;18.58;;;;;;;;;;4965097;28;25086;-78
2023/05/14 06:19:05;;;;;;;36.70;20.40;;;;;;;;;;4974015;28;25183;-79
2023/05/14 06:21:31;;;;;;;39.30;19.52;;;;;;;;;;4966501;28;25066;-78
2023/05/14 06:23:57;;;;;;;34.17;20.02;;;;;;;;;;4965317;28;25101;-78
2023/05/14 06:26:23;;;;;;;27.80;18.27;;;;;;;;;;4964971;28;30494;-77
2023/05/14 06:28:49;;;;;;;31.95;19.17;;;;;;;;;;4968790;28;25152;-79
2023/05/14 06:31:15;;;;;;;32.25;18.83;;;;;;;;;;4965167;28;25065;-76
2023/05/14 06:33:41;;;;;;;31.38;18.73;;;;;;;;;;4963424;28;25136;-75
2023/05/14 06:36:07;;;;;;;34.88;20.60;;;;;;;;;;4965815;28;25059;-76
2023/05/14 06:38:33;;;;;;;39.53;21.85;;;;;;;;;;4965613;28;25049;-77
2023/05/14 06:40:59;;;;;;;45.08;24.23;;;;;;;;;;4968242;28;25098;-78
2023/05/14 06:43:25;;;;;;;46.25;24.98;;;;;;;;;;4967196;28;25142;-78
2023/05/14 06:45:51;;;;;;;43.83;24.48;;;;;;;;;;4968878;28;25091;-80
2023/05/14 06:48:17;;;;;;;41.90;23.23;;;;;;;;;;4971976;28;25055;-80
2023/05/14 06:50:44;;;;;;;47.90;26.02;;;;;;;;;;4969035;28;25080;-79
2023/05/14 06:53:10;;;;;;;49.45;25.60;;;;;;;;;;4969398;28;25084;-78
2023/05/14 06:55:36;;;;;;;52.25;26.58;;;;;;;;;;4966506;28;25131;-77
2023/05/14 06:58:02;;;;;;;52.15;27.25;;;;;;;;;;4967264;28;25071;-78
2023/05/14 07:00:29;;;;;;;45.58;24.55;;;;;;;;;;4965875;28;25132;-79
2023/05/14 07:02:55;;;;;;;51.90;26.52;;;;;;;;;;4964098;28;25071;-77
2023/05/14 07:05:21;;;;;;;55.45;26.40;;;;;;;;;;4968904;28;25095;-81
2023/05/14 07:07:48;;;;;;;52.22;26.65;;;;;;;;;;4970653;28;25064;-82
2023/05/14 07:10:14;;;;;;;51.03;25.45;;;;;;;;;;4968807;28;25060;-76
2023/05/14 07:12:40;;;;;;;51.08;25.30;;;;;;;;;;4967251;28;25077;-77
2023/05/14 07:15:06;;;;;;;49.80;25.77;;;;;;;;;;4965123;28;25072;-76
2023/05/14 07:17:34;;;;;;;46.47;25.90;;;;;;;;;;4965677;28;25066;-77
2023/05/14 07:20:00;;;;;;;44.53;24.73;;;;;;;;;;4966730;28;25061;-79
2023/05/14 07:22:26;;;;;;;44.13;24.63;;;;;;;;;;4965282;28;25074;-75
2023/05/14 07:24:51;;;;;;;40.28;23.58;;;;;;;;;;4964049;28;25114;-78
2023/05/14 07:27:17;;;;;;;48.72;25.50;;;;;;;;;;4964782;28;25083;-79
2023/05/14 07:29:43;;;;;;;49.55;25.75;;;;;;;;;;4958961;28;25077;-79
2023/05/14 07:32:09;;;;;;;42.55;23.77;;;;;;;;;;4962285;28;25108;-77
2023/05/14 07:34:35;;;;;;;48.88;24.90;;;;;;;;;;4959279;28;25066;-81
2023/05/14 07:37:01;;;;;;;41.83;24.77;;;;;;;;;;4962246;28;25071;-79
2023/05/14 07:39:27;;;;;;;41.40;23.98;;;;;;;;;;4960935;28;25054;-79
2023/05/14 07:41:53;;;;;;;49.33;23.63;;;;;;;;;;4960831;28;25071;-79
2023/05/14 07:44:20;;;;;;;41.97;23.52;;;;;;;;;;4954387;28;25038;-78
2023/05/14 07:46:46;;;;;;;41.75;24.75;;;;;;;;;;4960870;28;25065;-79
2023/05/14 07:49:14;;;;;;;40.95;24.58;;;;;;;;;;4963797;28;25099;-80
2023/05/14 07:51:40;;;;;;;43.92;24.20;;;;;;;;;;4967511;28;25075;-80
2023/05/14 07:54:06;;;;;;;44.17;24.52;;;;;;;;;;4969396;28;25072;-76
2023/05/14 07:56:32;;;;;;;41.88;24.52;;;;;;;;;;4967861;28;25086;-78
2023/05/14 07:58:58;;;;;;;47.38;24.98;;;;;;;;;;4964980;28;25080;-78
2023/05/14 08:01:25;;;;;;;42.97;23.95;;;;;;;;;;4958354;28;25058;-77
2023/05/14 08:03:51;;;;;;;42.10;24.10;;;;;;;;;;4965645;28;25093;-78
2023/05/14 08:06:17;;;;;;;39.95;21.67;;;;;;;;;;4969704;28;25069;-76
2023/05/14 08:08:43;;;;;;;39.47;22.95;;;;;;;;;;4963781;28;25075;-76
2023/05/14 08:11:09;;;;;;;44.00;24.45;;;;;;;;;;4964474;28;25083;-77
2023/05/14 08:13:35;;;;;;;47.00;25.80;;;;;;;;;;4965385;28;25079;-79
2023/05/14 08:16:01;;;;;;;39.67;25.17;;;;;;;;;;4960090;28;25126;-79
2023/05/14 08:18:27;;;;;;;49.28;23.35;;;;;;;;;;4961369;28;25052;-77
2023/05/14 08:20:53;;;;;;;47.20;26.25;;;;;;;;;;4957691;28;25136;-76
2023/05/14 08:23:19;;;;;;;43.33;25.08;;;;;;;;;;4958266;28;25075;-75
2023/05/14 08:25:45;;;;;;;42.67;25.08;;;;;;;;;;4958148;28;25081;-77
2023/05/14 08:28:11;;;;;;;45.05;23.55;;;;;;;;;;4963920;28;25085;-78
2023/05/14 08:30:37;;;;;;;43.90;25.35;;;;;;;;;;4967551;28;25058;-77
2023/05/14 08:33:03;;;;;;;38.33;22.55;;;;;;;;;;4967757;28;25087;-79
2023/05/14 08:35:29;;;;;;;42.10;25.70;;;;;;;;;;4965324;28;25134;-75
2023/05/14 08:37:56;;;;;;;45.10;24.10;;;;;;;;;;4962372;28;25062;-77
2023/05/14 08:40:22;;;;;;;39.70;24.00;;;;;;;;;;4961184;28;25065;-78
2023/05/14 08:42:48;;;;;;;45.08;23.58;;;;;;;;;;4959491;28;25085;-78
2023/05/14 08:45:20;;;;;;;33.95;21.90;;;;;;;;;;4961778;28;25078;-76
2023/05/14 08:47:49;;;;;;;34.13;23.20;;;;;;;;;;4964340;28;25093;-77
2023/05/14 08:50:15;;;;;;;37.35;21.95;;;;;;;;;;4961499;28;25077;-76
2023/05/14 08:52:41;;;;;;;38.47;21.50;;;;;;;;;;4960988;28;25070;-77
2023/05/14 08:55:08;;;;;;;38.65;22.45;;;;;;;;;;4959102;28;25056;-79
2023/05/14 08:57:34;;;;;;;33.00;21.05;;;;;;;;;;4963310;28;25053;-75
2023/05/14 09:00:01;;;;;;;33.38;20.60;;;;;;;;;;4962727;28;25070;-78
2023/05/14 09:02:30;;;;;;;35.50;20.45;;;;;;;;;;4958325;28;25059;-77
2023/05/14 09:04:57;;;;;;;37.55;21.50;;;;;;;;;;4961376;28;25074;-75
2023/05/14 09:07:23;;;;;;;33.75;20.30;;;;;;;;;;4958335;28;25074;-77
2023/05/14 09:09:49;;;;;;;33.00;20.58;;;;;;;;;;4960979;28;25053;-75
2023/05/14 09:12:15;;;;;;;33.83;20.40;;;;;;;;;;4964230;28;25072;-74
2023/05/14 09:14:41;;;;;;;32.60;20.10;;;;;;;;;;4960322;28;25080;-76
2023/05/14 09:17:07;;;;;;;32.88;20.55;;;;;;;;;;4958750;28;25129;-77
2023/05/14 09:19:34;;;;;;;30.83;19.27;;;;;;;;;;4960586;28;25166;-76
2023/05/14 09:21:59;;;;;;;31.08;19.35;;;;;;;;;;4963324;28;25102;-77
2023/05/14 09:24:28;;;;;;;26.27;17.73;;;;;;;;;;4966916;28;25088;-76
2023/05/14 09:26:55;;;;;;;25.17;16.90;;;;;;;;;;4966659;28;25120;-78
2023/05/14 09:29:24;;;;;;;30.23;17.25;;;;;;;;;;4963595;28;25073;-78
2023/05/14 09:31:50;;;;;;;28.77;18.08;;;;;;;;;;4965259;28;25097;-77
2023/05/14 09:34:26;;;;;;;25.15;17.17;;;;;;;;;;4962222;28;25070;-76
2023/05/14 09:37:00;;;;;;;22.20;14.68;;;;;;;;;;4962222;28;25064;-76
2023/05/14 09:39:26;;;;;;;32.40;17.00;;;;;;;;;;4964002;28;25052;-75
2023/05/14 09:41:52;;;;;;;21.85;15.07;;;;;;;;;;4959485;28;25059;-77
2023/05/14 09:44:19;;;;;;;26.30;16.65;;;;;;;;;;4963277;28;25135;-78
2023/05/14 09:46:45;;;;;;;29.38;17.60;;;;;;;;;;4967533;28;25102;-78
2023/05/14 09:49:11;;;;;;;25.80;17.45;;;;;;;;;;4980708;28;25072;-75
2023/05/14 09:51:37;;;;;;;25.48;16.65;;;;;;;;;;4966133;28;25065;-78
2023/05/14 09:54:04;;;;;;;21.90;16.05;;;;;;;;;;4959693;28;25128;-75
2023/05/14 09:56:30;;;;;;;30.42;18.45;;;;;;;;;;4963015;28;25151;-78
2023/05/14 09:58:56;;;;;;;25.98;17.50;;;;;;;;;;4967348;28;25157;-76
2023/05/14 10:01:22;;;;;;;27.85;17.02;;;;;;;;;;4961703;28;25140;-76
2023/05/14 10:03:49;;;;;;;25.13;17.08;;;;;;;;;;4960494;28;25073;-74
2023/05/14 10:06:16;;;;;;;23.00;16.02;;;;;;;;;;4961863;28;25046;-75
2023/05/14 10:08:43;;;;;;;24.98;15.50;;;;;;;;;;4962691;28;25095;-75
2023/05/14 10:11:13;;;;;;;25.80;14.98;;;;;;;;;;4962396;28;25085;-74
2023/05/14 10:13:41;;;;;;;22.60;14.48;;;;;;;;;;4961174;28;25133;-77
2023/05/14 10:16:19;;;;;;;25.08;15.10;;;;;;;;;;4961842;28;25092;-77
2023/05/14 10:18:47;;;;;;;23.20;16.05;;;;;;;;;;4963930;28;25066;-77
2023/05/14 10:21:14;;;;;;;20.75;14.63;;;;;;;;;;4968800;28;25078;-77
2023/05/14 10:23:40;;;;;;;23.30;14.70;;;;;;;;;;4962889;28;25062;-73
2023/05/14 10:26:07;;;;;;;25.08;14.60;;;;;;;;;;4963478;28;25073;-76
2023/05/14 10:28:34;;;;;;;25.08;15.98;;;;;;;;;;4964566;28;25086;-76
2023/05/14 10:31:00;;;;;;;21.40;13.82;;;;;;;;;;4967575;28;25085;-74
2023/05/14 10:33:26;;;;;;;18.88;13.43;;;;;;;;;;4962494;28;25064;-75
2023/05/14 10:35:56;;;;;;;23.17;12.98;;;;;;;;;;4980750;28;25053;-78
2023/05/14 10:38:26;;;;;;;19.15;12.15;;;;;;;;;;4967516;28;25053;-77
2023/05/14 10:40:54;;;;;;;22.83;14.70;;;;;;;;;;4965243;28;25049;-75
2023/05/14 10:43:20;;;;;;;16.20;11.80;;;;;;;;;;4965922;28;25118;-75
2023/05/14 10:45:46;;;;;;;22.52;11.85;;;;;;;;;;4966750;28;25065;-77
2023/05/14 10:48:13;;;;;;;25.33;12.57;;;;;;;;;;4968455;28;25044;-77
2023/05/14 10:50:38;;;;;;;15.68;11.52;;;;;;;;;;4971726;28;25104;-75
2023/05/14 10:53:05;;;;;;;18.10;11.48;;;;;;;;;;4966211;28;25062;-76
2023/05/14 10:55:31;;;;;;;14.80;10.23;;;;;;;;;;4962871;28;25162;-75
2023/05/14 10:58:00;;;;;;;18.55;10.50;;;;;;;;;;4965099;28;25089;-75
2023/05/14 11:00:26;;;;;;;19.08;11.25;;;;;;;;;;4964207;28;25170;-77
2023/05/14 11:02:54;;;;;;;16.00;10.00;;;;;;;;;;4958560;28;25118;-74
2023/05/14 11:05:20;;;;;;;18.30;11.32;;;;;;;;;;4959102;28;25073;-76
2023/05/14 11:07:47;;;;;;;15.25;11.05;;;;;;;;;;4960736;28;25130;-77
2023/05/14 11:10:16;;;;;;;17.25;10.82;;;;;;;;;;4963087;28;25066;-74
2023/05/14 11:12:43;;;;;;;16.48;11.00;;;;;;;;;;4959844;28;25051;-75
2023/05/14 11:15:10;;;;;;;17.75;11.50;;;;;;;;;;4959183;28;25070;-75
2023/05/14 11:17:37;;;;;;;18.75;10.60;;;;;;;;;;4959408;28;25143;-75
2023/05/14 11:20:05;;;;;;;17.38;10.75;;;;;;;;;;4957965;28;25154;-77
2023/05/14 11:22:31;;;;;;;18.00;11.90;;;;;;;;;;4957315;28;25084;-76
2023/05/14 11:24:57;;;;;;;13.40;10.38;;;;;;;;;;4957774;28;25057;-77
2023/05/14 11:27:23;;;;;;;16.13;10.55;;;;;;;;;;4958608;28;25133;-75
2023/05/14 11:29:49;;;;;;;17.25;10.68;;;;;;;;;;4957957;28;25112;-74
2023/05/14 11:32:15;;;;;;;14.38;10.10;;;;;;;;;;4957325;28;25092;-75
2023/05/14 11:34:43;;;;;;;18.50;11.80;;;;;;;;;;4960734;28;25074;-77
2023/05/14 11:37:11;;;;;;;15.90;11.07;;;;;;;;;;4963028;28;25043;-77
2023/05/14 11:39:37;;;;;;;17.50;11.30;;;;;;;;;;4958829;28;25053;-76
2023/05/14 11:42:13;;;;;;;16.35;9.68;;;;;;;;;;4959994;28;25094;-75
2023/05/14 11:44:39;;;;;;;14.82;10.55;;;;;;;;;;4959075;28;25070;-76
2023/05/14 11:47:06;;;;;;;15.30;9.68;;;;;;;;;;4957102;28;25080;-76
2023/05/14 11:49:34;;;;;;;29.98;26.98;;;;;;;;;;4958453;28;25079;-74
2023/05/14 11:52:01;;;;;;;16.33;9.63;;;;;;;;;;4956997;28;25059;-79
2023/05/14 11:54:27;;;;;;;19.65;10.77;;;;;;;;;;4955544;28;25159;-74
2023/05/14 11:56:55;;;;;;;16.98;10.13;;;;;;;;;;4963593;28;25058;-75
2023/05/14 11:59:21;;;;;;;12.70;9.63;;;;;;;;;;4961829;28;25075;-76
2023/05/14 12:01:48;;;;;;;19.17;11.75;;;;;;;;;;4959647;28;25064;-76
2023/05/14 12:04:14;;;;;;;15.75;9.82;;;;;;;;;;4960745;28;25081;-73
2023/05/14 12:06:40;;;;;;;17.23;9.30;;;;;;;;;;4958996;28;25054;-76
2023/05/14 12:09:06;;;;;;;15.63;9.63;;;;;;;;;;4962646;28;25085;-75
2023/05/14 12:11:32;;;;;;;13.82;9.77;;;;;;;;;;4959606;28;25068;-74
2023/05/14 12:13:58;;;;;;;16.85;9.25;;;;;;;;;;4958076;28;25158;-75
2023/05/14 12:16:30;;;;;;;13.90;9.23;;;;;;;;;;4957068;28;25072;-75
2023/05/14 12:18:59;;;;;;;15.00;8.47;;;;;;;;;;4959242;28;25307;-76
2023/05/14 12:21:26;;;;;;;11.55;7.30;;;;;;;;;;4960866;28;25085;-75
2023/05/14 12:23:56;;;;;;;16.63;9.05;;;;;;;;;;4958296;28;25076;-76
2023/05/14 12:26:22;;;;;;;14.32;9.68;;;;;;;;;;4955954;28;25089;-78
2023/05/14 12:28:48;;;;;;;15.43;9.32;;;;;;;;;;4958847;28;25115;-75
2023/05/14 12:31:15;;;;;;;15.13;7.30;;;;;;;;;;4958619;28;25059;-75
2023/05/14 12:33:41;;;;;;;16.27;6.97;;;;;;;;;;4956058;28;25134;-75
2023/05/14 12:36:07;;;;;;;11.02;7.75;;;;;;;;;;4965400;28;25119;-72
2023/05/14 12:38:33;;;;;;;11.88;7.80;;;;;;;;;;4967593;28;25075;-74
2023/05/14 12:40:59;;;;;;;21.83;8.95;;;;;;;;;;4961782;28;25120;-74
2023/05/14 12:43:30;;;;;;;19.38;8.18;;;;;;;;;;4958540;28;25058;-74
2023/05/14 12:45:56;;;;;;;15.48;9.23;;;;;;;;;;4957083;28;25078;-75
2023/05/14 12:48:22;;;;;;;11.32;8.18;;;;;;;;;;4957113;28;25117;-76
2023/05/14 12:50:48;;;;;;;13.35;7.85;;;;;;;;;;4960577;28;25158;-73
2023/05/14 12:53:15;;;;;;;14.98;9.00;;;;;;;;;;4961323;28;25134;-76
2023/05/14 12:55:41;;;;;;;15.60;9.48;;;;;;;;;;4963549;28;25059;-76
2023/05/14 12:58:07;;;;;;;13.55;8.98;;;;;;;;;;4966680;28;25182;-75
2023/05/14 13:00:33;;;;;;;15.27;8.07;;;;;;;;;;4964729;28;25045;-73
2023/05/14 13:02:59;;;;;;;16.02;8.57;;;;;;;;;;4965107;28;25066;-76
2023/05/14 13:05:25;;;;;;;17.60;8.50;;;;;;;;;;4966115;28;25080;-75
2023/05/14 13:07:52;;;;;;;15.07;9.10;;;;;;;;;;4980114;28;25079;-76
2023/05/14 13:10:18;;;;;;;24.23;9.38;;;;;;;;;;4967683;28;25053;-76
2023/05/14 13:12:44;;;;;;;15.70;9.57;;;;;;;;;;4964206;28;25058;-76
2023/05/14 13:15:10;;;;;;;16.63;9.98;;;;;;;;;;4961057;28;25072;-75
2023/05/14 13:17:36;;;;;;;16.10;9.52;;;;;;;;;;4964199;28;25068;-74
2023/05/14 13:20:03;;;;;;;16.98;9.15;;;;;;;;;;4963118;28;25141;-75
2023/05/14 13:22:29;;;;;;;15.27;8.65;;;;;;;;;;4946771;28;25070;-74
2023/05/14 13:24:55;;;;;;;15.07;8.18;;;;;;;;;;4964909;28;25056;-76
2023/05/14 13:27:21;;;;;;;15.93;8.88;;;;;;;;;;4962699;28;25062;-77
2023/05/14 13:29:47;;;;;;;18.35;9.38;;;;;;;;;;4962829;28;25070;-75
2023/05/14 13:32:13;;;;;;;17.00;9.32;;;;;;;;;;4963077;28;25079;-76
2023/05/14 13:34:39;;;;;;;19.33;9.35;;;;;;;;;;4961888;28;25128;-77
2023/05/14 13:37:05;;;;;;;17.88;9.52;;;;;;;;;;4963902;28;25109;-77
2023/05/14 13:39:31;;;;;;;13.93;8.20;;;;;;;;;;4962146;28;25055;-76
2023/05/14 13:41:57;;;;;;;16.23;9.73;;;;;;;;;;4963399;28;25137;-77
2023/05/14 13:44:23;;;;;;;13.30;8.32;;;;;;;;;;4961573;28;25056;-77
2023/05/14 13:46:49;;;;;;;13.35;9.70;;;;;;;;;;4961666;28;25133;-75
2023/05/14 13:49:15;;;;;;;14.25;9.48;;;;;;;;;;4964612;28;25096;-75
2023/05/14 13:51:41;;;;;;;16.10;8.75;;;;;;;;;;4963118;28;25104;-73
2023/05/14 13:54:07;;;;;;;19.00;9.90;;;;;;;;;;4962600;28;25164;-76
2023/05/14 13:56:33;;;;;;;15.40;8.82;;;;;;;;;;4964236;28;25099;-74
2023/05/14 13:58:59;;;;;;;16.02;8.45;;;;;;;;;;4963548;28;25091;-74
2023/05/14 14:01:25;;;;;;;17.70;8.60;;;;;;;;;;4966731;28;25079;-74
2023/05/14 14:03:51;;;;;;;14.18;7.18;;;;;;;;;;4966470;28;25052;-77
2023/05/14 14:06:17;;;;;;;14.55;8.20;;;;;;;;;;4965816;28;25096;-77
2023/05/14 14:08:43;;;;;;;19.02;8.80;;;;;;;;;;4960887;28;25048;-75
2023/05/14 14:11:09;;;;;;;19.48;8.77;;;;;;;;;;4957306;28;25108;-77
2023/05/14 14:13:36;;;;;;;21.95;9.10;;;;;;;;;;4958805;28;25067;-76